Terminal Aerodrome Forecast
Issued by NWS Sterling, VA

Home | Current Version | Previous Version | Text Only | Print | Product List | Glossary On
Versions: 1 2 3 4 5 6 7 8 9 10 11 12 13
000
FTUS41 KLWX 271400 AAA
TAFMRB
TAF AMD
KMRB 271427Z 2714/2812 00000KT 3SM BR SCT025 OVC050
      TEMPO 2714/2715 2SM BR
     FM271500 00000KT P6SM SCT025 OVC050
     FM272000 30007KT P6SM BKN050
     FM280400 30009KT P6SM SCT050=

USA.gov is the U.S. government's official web portal to all federal, state and local government web resources and services.